Time;durP1;ratioP1;P1;durP2;ratioP2;P2;SDS_P1;SDS_P2;PMS_P1;PMS_P2;Temp;Humidity;BMP_temperature;BMP_pressure;BME280_temperature;BME280_humidity;BME280_pressure;Samples;Min_cycle;Max_cycle;Signal;HPM_P1;HPM_P2
2023/10/29 00:01:09;;;;;;;35.38;17.95;;;;;;;9.50;100.00;99431.59;4894891;29;20032;-79
2023/10/29 00:03:35;;;;;;;35.27;17.27;;;;;;;9.44;100.00;99424.38;4891654;29;20516;-79
2023/10/29 00:06:00;;;;;;;28.83;17.83;;;;;;;9.69;100.00;99436.34;4879503;29;20493;-79
2023/10/29 00:08:25;;;;;;;33.30;19.50;;;;;;;9.59;100.00;99427.81;4894697;29;20036;-79
2023/10/29 00:10:51;;;;;;;42.43;22.27;;;;;;;9.54;100.00;99430.22;4907767;28;20293;-79
2023/10/29 00:13:16;;;;;;;50.20;23.43;;;;;;;9.57;100.00;99423.69;4894871;29;20083;-78
2023/10/29 00:15:41;;;;;;;34.70;19.43;;;;;;;9.60;100.00;99425.97;4894759;29;20485;-78
2023/10/29 00:18:12;;;;;;;48.23;20.93;;;;;;;9.52;100.00;99418.94;4894470;29;20103;-79
2023/10/29 00:20:41;;;;;;;35.25;19.25;;;;;;;9.53;100.00;99412.59;4894566;29;20044;-79
2023/10/29 00:23:07;;;;;;;34.75;18.63;;;;;;;9.50;100.00;99402.31;4894600;29;20025;-78
2023/10/29 00:25:32;;;;;;;;;;;;;;;9.52;100.00;99390.44;4910343;29;20135;-79
2023/10/29 00:27:57;;;;;;;34.08;19.10;;;;;;;9.55;100.00;99378.56;4876914;29;19954;-78
2023/10/29 00:30:23;;;;;;;38.50;20.07;;;;;;;9.55;100.00;99375.91;4893859;29;20099;-79
2023/10/29 00:32:49;;;;;;;;;;;;;;;9.43;100.00;99382.75;4894904;29;20456;-78
2023/10/29 00:35:14;;;;;;;44.78;20.70;;;;;;;9.51;100.00;99377.31;4909561;29;20017;-78
2023/10/29 00:37:40;;;;;;;36.17;20.27;;;;;;;9.41;100.00;99379.44;4878143;29;20532;-78
2023/10/29 00:40:06;;;;;;;38.00;20.73;;;;;;;9.45;100.00;99394.88;4894039;29;20119;-78
2023/10/29 00:42:31;;;;;;;47.03;21.10;;;;;;;9.56;100.00;99390.91;4878768;29;20055;-79
2023/10/29 00:44:57;;;;;;;39.23;19.07;;;;;;;9.38;100.00;99385.97;4894710;29;20071;-79
2023/10/29 00:47:22;;;;;;;35.17;19.10;;;;;;;9.50;100.00;99397.81;4893420;29;20036;-79
2023/10/29 00:49:48;;;;;;;35.80;19.10;;;;;;;9.45;100.00;99404.72;4889560;28;20434;-78
2023/10/29 00:52:14;;;;;;;41.03;19.87;;;;;;;9.56;100.00;99401.56;4909458;29;20075;-78
2023/10/29 00:54:39;;;;;;;40.55;20.75;;;;;;;9.50;100.00;99396.97;4893259;28;20351;-79
2023/10/29 00:57:07;;;;;;;30.37;17.97;;;;;;;9.39;100.00;99385.00;4892905;29;20512;-79
2023/10/29 00:59:34;;;;;;;36.03;19.38;;;;;;;9.44;100.00;99371.09;4892427;29;20127;-79
2023/10/29 01:01:59;;;;;;;40.95;19.10;;;;;;;9.47;100.00;99370.72;4892372;29;20064;-78
2023/10/29 01:04:25;;;;;;;33.92;18.70;;;;;;;9.39;100.00;99363.69;4876486;29;20048;-78
2023/10/29 01:06:51;;;;;;;37.60;18.10;;;;;;;9.31;100.00;99350.47;4907112;29;20025;-79
2023/10/29 01:09:17;;;;;;;35.17;18.45;;;;;;;9.51;100.00;99356.00;4891982;29;20693;-78
2023/10/29 01:11:43;;;;;;;35.30;18.92;;;;;;;9.53;100.00;99354.00;4890614;29;20029;-78
2023/10/29 01:14:08;;;;;;;30.48;17.50;;;;;;;9.47;100.00;99355.56;4891528;29;20094;-77
2023/10/29 01:16:34;;;;;;;33.73;18.27;;;;;;;9.55;100.00;99357.25;4876084;29;20064;-78
2023/10/29 01:18:59;;;;;;;33.72;19.20;;;;;;;9.39;100.00;99341.53;4876214;29;20048;-78
2023/10/29 01:21:27;;;;;;;33.03;18.40;;;;;;;9.43;100.00;99342.78;4892191;29;20063;-78
2023/10/29 01:23:52;;;;;;;34.30;17.75;;;;;;;9.36;100.00;99317.94;4891893;29;20389;-79
2023/10/29 01:26:18;;;;;;;34.28;18.60;;;;;;;9.39;100.00;99312.22;4876308;29;20033;-78
2023/10/29 01:28:44;;;;;;;31.93;18.17;;;;;;;9.63;100.00;99306.53;4875991;29;20090;-77
2023/10/29 01:31:10;;;;;;;30.60;18.45;;;;;;;9.49;100.00;99280.78;4874959;29;20493;-77
2023/10/29 01:33:36;;;;;;;30.70;17.80;;;;;;;9.42;100.00;99272.72;4889357;29;20045;-77
2023/10/29 01:36:01;;;;;;;34.05;18.85;;;;;;;9.45;100.00;99266.19;4891543;29;20122;-78
2023/10/29 01:38:27;;;;;;;28.58;16.58;;;;;;;9.26;100.00;99280.97;4891260;29;20383;-77
2023/10/29 01:40:53;;;;;;;34.20;18.80;;;;;;;9.45;100.00;99306.16;4891640;29;20032;-77
2023/10/29 01:43:19;;;;;;;;;;;;;;;9.61;100.00;99315.72;4892063;29;20060;-77
2023/10/29 01:45:45;;;;;;;31.42;17.00;;;;;;;9.36;100.00;99297.44;4895542;28;20316;-78
2023/10/29 01:48:10;;;;;;;30.40;16.73;;;;;;;9.32;100.00;99298.00;4891025;29;20103;-78
2023/10/29 01:50:37;;;;;;;31.20;16.37;;;;;;;9.38;100.00;99303.41;4891496;29;20441;-78
2023/10/29 01:53:02;;;;;;;29.25;17.10;;;;;;;9.26;100.00;99288.97;4875715;29;20428;-78
2023/10/29 01:55:27;;;;;;;30.70;16.95;;;;;;;9.38;100.00;99286.59;4890995;28;20037;-76
2023/10/29 01:57:53;;;;;;;27.07;17.33;;;;;;;9.38;100.00;99281.28;4891651;28;20028;-77
2023/10/29 02:00:19;;;;;;;28.63;16.88;;;;;;;9.38;100.00;99294.59;4876471;29;20501;-77
2023/10/29 02:02:46;;;;;;;31.30;17.17;;;;;;;9.39;100.00;99288.25;4891867;29;20033;-78
2023/10/29 02:05:12;;;;;;;27.10;16.73;;;;;;;9.24;100.00;99280.31;4891778;29;20276;-76
2023/10/29 02:07:37;;;;;;;28.77;16.73;;;;;;;9.17;100.00;99266.13;4891451;29;20043;-76
2023/10/29 02:10:03;;;;;;;28.60;17.07;;;;;;;9.27;100.00;99272.78;4891761;29;20035;-78
2023/10/29 02:12:28;;;;;;;30.83;16.95;;;;;;;9.26;100.00;99263.13;4891771;29;20039;-77
2023/10/29 02:14:54;;;;;;;31.67;17.13;;;;;;;9.14;100.00;99256.69;4875891;29;20639;-77
2023/10/29 02:17:21;;;;;;;33.77;16.03;;;;;;;9.17;100.00;99250.97;4891603;29;20064;-77
2023/10/29 02:19:46;;;;;;;32.35;18.10;;;;;;;9.21;100.00;99249.56;4893075;29;20511;-77
2023/10/29 02:22:12;;;;;;;32.10;16.97;;;;;;;9.32;100.00;99250.06;4876487;28;20054;-78
2023/10/29 02:24:37;;;;;;;28.50;16.63;;;;;;;9.32;100.00;99250.06;4893621;29;20064;-78
2023/10/29 02:27:03;;;;;;;27.50;16.37;;;;;;;9.46;100.00;99254.53;4907298;29;20046;-77
2023/10/29 02:29:29;;;;;;;28.95;16.00;;;;;;;9.38;100.00;99251.97;4899391;29;20075;-78
2023/10/29 02:31:55;;;;;;;25.20;15.65;;;;;;;9.27;100.00;99253.31;4892318;29;20096;-79
2023/10/29 02:34:20;;;;;;;24.57;16.43;;;;;;;9.31;100.00;99251.91;4897956;29;20044;-76
2023/10/29 02:36:45;;;;;;;22.43;14.13;;;;;;;9.38;100.00;99236.00;4891078;29;20027;-77
2023/10/29 02:39:12;;;;;;;27.00;15.33;;;;;;;9.32;100.00;99229.63;4898969;29;20103;-79
2023/10/29 02:41:38;;;;;;;25.17;15.55;;;;;;;9.22;100.00;99224.59;4889228;29;20060;-77
2023/10/29 02:44:04;;;;;;;21.98;14.75;;;;;;;9.30;100.00;99221.81;4891401;29;20477;-77
2023/10/29 02:46:30;;;;;;;27.13;14.30;;;;;;;9.32;100.00;99229.63;4909768;29;20040;-77
2023/10/29 02:48:56;;;;;;;24.42;15.27;;;;;;;9.36;100.00;99209.53;4894029;29;20033;-77
2023/10/29 02:51:21;;;;;;;28.30;16.02;;;;;;;9.27;100.00;99205.38;4893982;29;20552;-77
2023/10/29 02:53:47;;;;;;;24.20;14.20;;;;;;;9.41;100.00;99208.97;4894111;29;20043;-77
2023/10/29 02:56:12;;;;;;;21.67;12.33;;;;;;;9.49;100.00;99206.19;4894195;29;20666;-77
2023/10/29 02:58:38;;;;;;;28.80;15.77;;;;;;;9.25;100.00;99194.94;4890579;29;20055;-79
2023/10/29 03:01:15;;;;;;;30.88;14.93;;;;;;;9.32;100.00;99197.66;4894419;29;20067;-78
2023/10/29 03:03:41;;;;;;;31.85;15.60;;;;;;;9.35;100.00;99191.94;4890356;29;20044;-78
2023/10/29 03:06:08;;;;;;;24.63;14.88;;;;;;;9.43;100.00;99193.63;4898767;29;20033;-78
2023/10/29 03:08:34;;;;;;;21.33;13.50;;;;;;;9.38;100.00;99190.72;4887799;29;20520;-77
2023/10/29 03:10:59;;;;;;;;;;;;;;;9.39;100.00;99179.03;4887297;29;20028;-77
2023/10/29 03:13:25;;;;;;;21.95;12.70;;;;;;;9.39;100.00;99171.06;4894346;29;20316;-78
2023/10/29 03:15:50;;;;;;;23.27;14.10;;;;;;;9.25;100.00;99160.31;4894129;29;20055;-78
2023/10/29 03:18:16;;;;;;;23.95;14.93;;;;;;;9.16;100.00;99168.63;4893823;29;20061;-77
2023/10/29 03:20:41;;;;;;;28.30;15.93;;;;;;;9.18;100.00;99167.44;4884872;29;20048;-78
2023/10/29 03:23:07;;;;;;;22.73;13.32;;;;;;;9.23;100.00;99167.66;4884625;29;20037;-77
2023/10/29 03:25:32;;;;;;;26.17;14.77;;;;;;;9.20;100.00;99153.91;4875148;29;20095;-78
2023/10/29 03:27:58;;;;;;;22.77;14.00;;;;;;;9.07;100.00;99144.78;4878187;29;20025;-77
2023/10/29 03:30:24;;;;;;;17.25;11.55;;;;;;;8.99;100.00;99158.25;4886242;29;20040;-77
2023/10/29 03:32:49;;;;;;;21.40;12.80;;;;;;;9.08;100.00;99158.91;4891845;28;20024;-82
2023/10/29 03:35:15;;;;;;;21.10;11.60;;;;;;;9.14;100.00;99152.03;4895482;29;20069;-82
2023/10/29 03:37:44;;;;;;;22.45;11.63;;;;;;;9.08;100.00;99140.28;4898689;28;20032;-81
2023/10/29 03:40:10;;;;;;;23.50;11.47;;;;;;;9.12;100.00;99130.91;4877828;29;20037;-82
2023/10/29 03:42:35;;;;;;;20.80;11.27;;;;;;;9.07;100.00;99125.34;4904104;29;20119;-81
2023/10/29 03:45:01;;;;;;;23.30;13.77;;;;;;;9.17;100.00;99119.69;4896007;29;20028;-80
2023/10/29 03:47:26;;;;;;;27.20;13.93;;;;;;;9.13;100.00;99110.41;4894719;29;20052;-79
2023/10/29 03:49:51;;;;;;;20.93;13.27;;;;;;;9.02;100.00;99101.97;4900702;28;20524;-80
2023/10/29 03:52:23;;;;;;;25.80;13.23;;;;;;;8.97;100.00;99103.56;4894130;29;20101;-80
2023/10/29 03:54:49;;;;;;;21.02;13.43;;;;;;;8.98;100.00;99106.00;4894849;28;20029;-79
2023/10/29 03:57:14;;;;;;;26.13;14.30;;;;;;;9.13;100.00;99105.94;4896147;29;20390;-80
2023/10/29 03:59:40;;;;;;;21.97;12.67;;;;;;;9.13;100.00;99081.13;4908694;29;20052;-81
2023/10/29 04:02:05;;;;;;;20.02;11.88;;;;;;;9.07;100.00;99077.41;4897294;29;20036;-79
2023/10/29 04:04:32;;;;;;;25.83;14.48;;;;;;;8.97;100.00;99080.41;4905642;28;20051;-79
2023/10/29 04:06:58;;;;;;;20.50;13.38;;;;;;;9.05;100.00;99069.63;4888743;29;20032;-80
2023/10/29 04:09:23;;;;;;;27.48;12.52;;;;;;;9.07;100.00;99067.59;4880711;29;20060;-80
2023/10/29 04:11:49;;;;;;;25.08;12.02;;;;;;;8.96;100.00;99064.63;4896593;29;20416;-78
2023/10/29 04:14:15;;;;;;;19.02;12.25;;;;;;;9.04;100.00;99069.81;4896794;29;20032;-79
2023/10/29 04:16:40;;;;;;;21.93;12.03;;;;;;;8.97;100.00;99055.66;4895689;29;20088;-79
2023/10/29 04:19:05;;;;;;;24.80;11.32;;;;;;;9.18;100.00;99062.75;4904023;29;20106;-79
2023/10/29 04:21:31;;;;;;;20.40;11.27;;;;;;;9.11;100.00;99046.75;4896365;29;20044;-79
2023/10/29 04:23:56;;;;;;;22.27;11.73;;;;;;;9.02;100.00;99031.94;4896237;29;20036;-79
2023/10/29 04:26:22;;;;;;;17.80;10.23;;;;;;;9.03;100.00;99029.06;4903451;29;20040;-78
2023/10/29 04:28:47;;;;;;;15.37;10.40;;;;;;;9.05;100.00;99031.53;4895150;29;20054;-79
2023/10/29 04:31:12;;;;;;;21.80;11.33;;;;;;;9.12;100.00;99020.94;4891885;29;20513;-79
2023/10/29 04:33:38;;;;;;;21.37;9.07;;;;;;;9.09;100.00;99014.16;4895318;29;20059;-80
2023/10/29 04:36:04;;;;;;;14.10;9.10;;;;;;;9.04;100.00;99006.75;4892774;29;20047;-80
2023/10/29 04:38:30;;;;;;;19.25;9.38;;;;;;;9.19;100.00;99017.28;4904567;28;20025;-79
2023/10/29 04:40:55;;;;;;;14.20;9.15;;;;;;;9.05;100.00;99003.06;4934389;28;20041;-79
2023/10/29 04:43:20;;;;;;;16.63;10.47;;;;;;;8.99;100.00;98995.03;4886793;29;20131;-78
2023/10/29 04:45:46;;;;;;;18.17;9.00;;;;;;;9.09;100.00;98987.53;4891765;29;20031;-78
2023/10/29 04:48:11;;;;;;;16.20;10.47;;;;;;;8.99;100.00;98973.72;4909136;29;20037;-80
2023/10/29 04:50:36;;;;;;;18.97;9.97;;;;;;;9.00;100.00;98983.38;4893729;29;20028;-78
2023/10/29 04:53:02;;;;;;;18.17;9.60;;;;;;;9.01;100.00;98985.88;4893710;29;20036;-78
2023/10/29 04:55:28;;;;;;;17.60;9.02;;;;;;;9.22;100.00;98984.94;5006366;23;20088;-79
2023/10/29 04:57:54;;;;;;;17.60;9.35;;;;;;;9.02;100.00;98962.72;5016225;28;20037;-79
2023/10/29 05:00:19;;;;;;;17.90;9.30;;;;;;;9.12;100.00;98968.50;5022847;28;20406;-79
2023/10/29 05:02:44;;;;;;;17.03;9.63;;;;;;;9.05;100.00;98964.97;5040274;28;20392;-79
2023/10/29 05:05:11;;;;;;;14.97;9.03;;;;;;;9.02;100.00;98968.03;5006902;28;20041;-78
2023/10/29 05:07:37;;;;;;;14.63;7.57;;;;;;;9.12;100.00;98976.47;5021303;28;20030;-78
2023/10/29 05:10:03;;;;;;;11.65;6.43;;;;;;;9.01;100.00;98974.38;5014421;28;20037;-77
2023/10/29 05:12:29;;;;;;;11.48;7.05;;;;;;;9.05;100.00;98951.66;5005566;28;20042;-78
2023/10/29 05:14:54;;;;;;;10.27;6.87;;;;;;;9.17;100.00;98950.09;5028249;28;20044;-78
2023/10/29 05:17:20;;;;;;;10.70;6.63;;;;;;;9.27;100.00;98939.91;5007307;28;20034;-78
2023/10/29 05:19:45;;;;;;;8.63;5.20;;;;;;;9.18;100.00;98938.44;5018843;28;20180;-78
2023/10/29 05:22:14;;;;;;;10.03;5.90;;;;;;;9.34;100.00;98939.09;5021425;28;20056;-78
2023/10/29 05:24:39;;;;;;;7.97;5.40;;;;;;;9.16;100.00;98924.50;5004692;28;20040;-79
2023/10/29 05:27:04;;;;;;;8.97;5.23;;;;;;;9.17;100.00;98939.44;5024907;28;20037;-78
2023/10/29 05:29:32;;;;;;;9.33;4.70;;;;;;;9.27;100.00;98939.91;5029363;28;20033;-78
2023/10/29 05:31:57;;;;;;;5.95;4.72;;;;;;;9.28;100.00;98932.75;5009217;28;20033;-78
2023/10/29 05:34:23;;;;;;;6.07;3.90;;;;;;;9.36;100.00;98939.72;5017427;28;20021;-78
2023/10/29 05:36:48;;;;;;;7.20;4.07;;;;;;;9.31;100.00;98911.03;5012068;28;20490;-78
2023/10/29 05:39:16;;;;;;;4.60;3.47;;;;;;;9.32;100.00;98925.16;5030255;28;20052;-78
2023/10/29 05:41:42;;;;;;;5.53;4.20;;;;;;;9.33;100.00;98927.63;5028766;28;20775;-78
2023/10/29 05:44:07;;;;;;;6.67;4.20;;;;;;;9.36;100.00;98921.91;5004192;28;20112;-78
2023/10/29 05:46:32;;;;;;;5.07;3.40;;;;;;;9.38;100.00;98917.19;5028959;28;20037;-78
2023/10/29 05:48:58;;;;;;;4.13;3.10;;;;;;;9.52;100.00;98915.41;4999741;28;20036;-78
2023/10/29 05:51:24;;;;;;;4.35;3.13;;;;;;;9.62;100.00;98910.53;5003589;28;20401;-78
2023/10/29 05:53:49;;;;;;;3.72;2.45;;;;;;;9.45;100.00;98910.06;5011716;28;20030;-77
2023/10/29 05:56:17;;;;;;;4.70;2.80;;;;;;;9.54;100.00;98886.72;5029659;28;20034;-78
2023/10/29 05:58:43;;;;;;;3.85;2.70;;;;;;;9.41;100.00;98881.34;5031309;28;20037;-77
2023/10/29 06:01:10;;;;;;;3.88;2.30;;;;;;;9.55;100.00;98900.84;5029040;28;20029;-78
2023/10/29 06:03:36;;;;;;;2.85;2.20;;;;;;;9.52;100.00;98886.91;5026787;28;20091;-78
2023/10/29 06:06:01;;;;;;;5.15;3.15;;;;;;;9.52;100.00;98886.91;5000934;28;20038;-78
2023/10/29 06:08:26;;;;;;;3.55;2.75;;;;;;;9.51;100.00;98893.28;5025038;28;20398;-77
2023/10/29 06:10:52;;;;;;;4.83;2.53;;;;;;;9.57;100.00;98890.81;5013410;28;20030;-77
2023/10/29 06:13:17;;;;;;;3.77;2.67;;;;;;;9.58;100.00;98885.31;5029624;28;20450;-76
2023/10/29 06:15:42;;;;;;;2.97;2.67;;;;;;;9.65;100.00;98896.00;5022000;28;20104;-78
2023/10/29 06:18:08;;;;;;;5.67;3.63;;;;;;;9.63;100.00;98887.38;5024860;28;20112;-77
2023/10/29 06:20:34;;;;;;;4.30;3.37;;;;;;;9.75;100.00;98879.59;5030331;28;20486;-78
2023/10/29 06:22:59;;;;;;;5.85;3.35;;;;;;;9.72;100.00;98881.66;5013629;28;20506;-78
2023/10/29 06:25:27;;;;;;;4.57;3.20;;;;;;;9.80;100.00;98909.13;5018870;28;20103;-78
2023/10/29 06:27:52;;;;;;;7.75;3.20;;;;;;;9.87;100.00;98901.97;5008687;28;20053;-78
2023/10/29 06:30:18;;;;;;;6.00;4.23;;;;;;;9.91;100.00;98897.88;5018106;28;20064;-78
2023/10/29 06:32:43;;;;;;;5.37;3.50;;;;;;;10.01;100.00;98886.81;5023282;28;20385;-78
2023/10/29 06:35:11;;;;;;;8.03;3.83;;;;;;;10.03;100.00;98871.44;5020988;28;20030;-79
2023/10/29 06:37:37;;;;;;;7.38;3.33;;;;;;;10.12;100.00;98873.69;5032689;28;20030;-78
2023/10/29 06:40:03;;;;;;;3.63;2.90;;;;;;;10.15;100.00;98873.25;5004181;28;20022;-78
2023/10/29 06:42:28;;;;;;;5.47;4.07;;;;;;;10.17;100.00;98870.41;5012958;28;20034;-78
2023/10/29 06:44:53;;;;;;;6.63;3.10;;;;;;;10.30;100.00;98864.25;5031576;28;20022;-78
2023/10/29 06:47:19;;;;;;;5.97;2.90;;;;;;;10.15;100.00;98857.25;5002970;28;20316;-78
2023/10/29 06:49:44;;;;;;;6.47;3.20;;;;;;;10.17;100.00;98856.25;5012960;28;20021;-78
2023/10/29 06:52:10;;;;;;;7.50;3.53;;;;;;;10.24;100.00;98854.41;5033605;28;20044;-78
2023/10/29 06:54:35;;;;;;;5.40;3.20;;;;;;;10.29;100.00;98851.97;5008180;28;20026;-78
2023/10/29 06:57:01;;;;;;;4.87;2.90;;;;;;;10.32;100.00;98855.06;5015431;28;20482;-78
2023/10/29 06:59:30;;;;;;;7.75;3.72;;;;;;;10.27;100.00;98848.66;5007878;28;20205;-78
2023/10/29 07:01:58;;;;;;;4.90;3.72;;;;;;;10.28;100.00;98847.63;5026584;28;20027;-78
2023/10/29 07:04:24;;;;;;;3.55;2.97;;;;;;;10.45;100.00;98843.53;5002018;28;20065;-79
2023/10/29 07:06:50;;;;;;;5.47;3.17;;;;;;;10.32;100.00;98836.38;5032818;28;20042;-79
2023/10/29 07:09:15;;;;;;;6.60;3.43;;;;;;;10.33;100.00;98846.00;5007448;28;20436;-78
2023/10/29 07:11:45;;;;;;;4.00;3.10;;;;;;;10.31;100.00;98839.25;5014717;28;20021;-78
2023/10/29 07:14:11;;;;;;;10.38;3.80;;;;;;;10.35;100.00;98835.13;5015354;28;20057;-77
2023/10/29 07:16:43;;;;;;;;;;;;;;;10.48;100.00;98832.44;5027020;28;20398;-78
2023/10/29 07:19:10;;;;;;;4.20;3.42;;;;;;;10.51;100.00;98829.38;5032921;28;19956;-77
2023/10/29 07:21:35;;;;;;;6.43;3.28;;;;;;;10.54;100.00;98831.59;5020694;28;20080;-77
2023/10/29 07:24:03;;;;;;;3.93;3.10;;;;;;;10.49;100.00;98835.94;5030389;28;20080;-78
2023/10/29 07:26:28;;;;;;;5.75;3.65;;;;;;;10.47;100.00;98827.31;5027243;28;20018;-77
2023/10/29 07:28:54;;;;;;;4.73;3.10;;;;;;;10.33;100.00;98831.84;5046069;28;20087;-77
2023/10/29 07:31:19;;;;;;;8.27;4.00;;;;;;;10.59;100.00;98830.97;5015016;28;20033;-77
2023/10/29 07:33:44;;;;;;;5.30;2.43;;;;;;;10.63;100.00;98837.53;5031608;28;20033;-79
2023/10/29 07:36:10;;;;;;;5.73;2.60;;;;;;;10.63;100.00;98834.03;5016914;28;20074;-78
2023/10/29 07:38:35;;;;;;;5.03;2.33;;;;;;;10.64;100.00;98852.50;5036082;28;20080;-78
2023/10/29 07:41:01;;;;;;;3.30;2.57;;;;;;;10.67;100.00;98840.59;5030094;28;20045;-78
2023/10/29 07:43:26;;;;;;;6.82;3.45;;;;;;;10.68;100.00;98847.59;5011313;28;20026;-78
2023/10/29 07:45:52;;;;;;;5.23;2.67;;;;;;;10.75;100.00;98851.88;5031866;28;20049;-78
2023/10/29 07:48:21;;;;;;;8.20;2.60;;;;;;;10.69;100.00;98849.22;5023868;28;20021;-79
2023/10/29 07:50:50;;;;;;;4.28;2.50;;;;;;;10.76;100.00;98845.50;5031344;28;20157;-78
2023/10/29 07:53:16;;;;;;;5.90;2.67;;;;;;;10.68;100.00;98842.25;5007472;28;20043;-78
2023/10/29 07:55:41;;;;;;;3.83;2.63;;;;;;;10.79;100.00;98830.91;5010704;28;20022;-78
2023/10/29 07:58:06;;;;;;;5.60;2.57;;;;;;;10.76;100.00;98828.66;5017464;28;20065;-78
2023/10/29 08:00:35;;;;;;;5.47;2.30;;;;;;;10.82;100.00;98819.81;5001905;28;20033;-77
2023/10/29 08:03:00;;;;;;;3.92;2.38;;;;;;;10.82;100.00;98827.84;5036046;28;20789;-78
2023/10/29 08:05:26;;;;;;;7.20;2.13;;;;;;;10.90;100.00;98858.81;5000680;28;20114;-78
2023/10/29 08:07:51;;;;;;;5.53;2.23;;;;;;;10.94;100.00;98855.50;5021536;28;20088;-78
2023/10/29 08:10:17;;;;;;;3.07;2.00;;;;;;;10.93;100.00;98861.91;5025003;28;20018;-78
2023/10/29 08:12:42;;;;;;;7.50;2.20;;;;;;;10.94;100.00;98844.00;5006046;28;20847;-77
2023/10/29 08:15:08;;;;;;;3.47;1.93;;;;;;;10.93;100.00;98811.16;5005956;28;20033;-78
2023/10/29 08:17:33;;;;;;;3.20;1.98;;;;;;;11.16;100.00;98805.28;5024182;28;20026;-78
2023/10/29 08:19:58;;;;;;;4.00;2.17;;;;;;;11.18;100.00;98808.56;5003121;28;20545;-77
2023/10/29 08:22:25;;;;;;;4.93;2.33;;;;;;;11.05;100.00;98808.66;5018634;28;20033;-77
2023/10/29 08:24:50;;;;;;;5.15;1.88;;;;;;;10.98;100.00;98810.53;5017676;28;20479;-77
2023/10/29 08:27:16;;;;;;;4.97;2.38;;;;;;;11.08;100.00;98802.88;5016351;28;20030;-76
2023/10/29 08:29:43;;;;;;;5.28;1.75;;;;;;;11.07;100.00;98800.41;5023123;28;20033;-77
2023/10/29 08:32:09;;;;;;;5.53;2.28;;;;;;;11.02;100.00;98805.56;5030090;28;20117;-76
2023/10/29 08:34:34;;;;;;;4.72;2.00;;;;;;;11.01;100.00;98794.06;5013261;28;20116;-77
2023/10/29 08:36:59;;;;;;;4.93;2.03;;;;;;;11.23;100.00;98799.91;5029602;28;20033;-77
2023/10/29 08:39:25;;;;;;;12.97;2.60;;;;;;;11.33;100.00;98804.78;5005105;28;20060;-77
2023/10/29 08:41:50;;;;;;;4.87;1.83;;;;;;;11.39;100.00;98799.41;5029012;28;20440;-77
2023/10/29 08:44:18;;;;;;;2.88;1.58;;;;;;;11.40;100.00;98801.06;5018581;28;20497;-77
2023/10/29 08:46:44;;;;;;;4.07;1.70;;;;;;;12.06;100.00;98800.78;5029053;28;20042;-78
2023/10/29 08:49:11;;;;;;;5.68;1.77;;;;;;;12.85;100.00;98807.16;4994016;28;20029;-78
2023/10/29 08:51:36;;;;;;;;;;;;;;;13.59;100.00;98807.84;5009909;28;20524;-78
2023/10/29 08:54:02;;;;;;;;;;;;;;;13.66;100.00;98778.25;5016995;28;19960;-79
2023/10/29 08:56:29;;;;;;;2.92;1.30;;;;;;;14.28;100.00;98783.19;5025042;28;19913;-79
2023/10/29 08:58:54;;;;;;;5.80;1.40;;;;;;;14.32;100.00;98750.28;5006517;28;20037;-81
2023/10/29 09:01:20;;;;;;;1.42;1.10;;;;;;;14.57;100.00;98763.47;5025648;28;20029;-81
2023/10/29 09:03:46;;;;;;;2.13;1.10;;;;;;;14.78;100.00;98729.78;5013834;28;20565;-80
2023/10/29 09:06:12;;;;;;;2.83;1.40;;;;;;;14.94;100.00;98719.31;5023447;28;20017;-81
2023/10/29 09:08:38;;;;;;;4.25;1.55;;;;;;;15.43;100.00;98691.94;5030338;28;20284;-81
2023/10/29 09:11:04;;;;;;;7.20;1.38;;;;;;;15.04;100.00;98678.38;5031420;28;20021;-81
2023/10/29 09:13:30;;;;;;;2.53;1.20;;;;;;;13.90;100.00;98635.06;5009048;28;20034;-82
2023/10/29 09:15:55;;;;;;;2.17;1.57;;;;;;;13.56;100.00;98697.59;5030009;28;20021;-82
2023/10/29 09:18:21;;;;;;;5.35;1.80;;;;;;;14.17;100.00;98743.78;5015134;28;20033;-81
2023/10/29 09:20:46;;;;;;;3.00;1.27;;;;;;;13.80;100.00;98691.16;5010601;28;20133;-79
2023/10/29 09:23:15;;;;;;;3.73;1.80;;;;;;;13.37;100.00;98691.47;5031618;28;20096;-82
2023/10/29 09:25:47;;;;;;;5.50;1.42;;;;;;;13.24;100.00;98713.91;5026738;28;20042;-79
2023/10/29 09:28:13;;;;;;;2.92;1.08;;;;;;;12.91;100.00;98719.75;5032532;28;20049;-82
2023/10/29 09:30:39;;;;;;;3.70;1.35;;;;;;;14.21;100.00;98777.97;5026837;28;20018;-82
2023/10/29 09:33:05;;;;;;;4.93;1.42;;;;;;;14.48;100.00;98691.53;5052072;28;20055;-81
2023/10/29 09:35:30;;;;;;;2.03;1.20;;;;;;;14.80;100.00;98645.44;5019625;28;20018;-80
2023/10/29 09:37:56;;;;;;;4.60;1.30;;;;;;;14.15;100.00;98607.94;5036317;28;20043;-82
2023/10/29 09:40:23;;;;;;;4.78;1.25;;;;;;;13.63;100.00;98655.38;5034648;28;20056;-80
2023/10/29 09:42:53;;;;;;;4.10;1.37;;;;;;;14.18;100.00;98679.09;5044076;28;20038;-80
2023/10/29 09:45:24;;;;;;;1.73;0.73;;;;;;;14.36;100.00;98715.72;5007523;28;20095;-79
2023/10/29 09:47:50;;;;;;;1.70;1.13;;;;;;;15.24;100.00;98662.63;5024775;28;20038;-79
2023/10/29 09:50:15;;;;;;;2.67;1.13;;;;;;;14.70;100.00;98534.09;5022322;28;20018;-76
2023/10/29 09:52:41;;;;;;;4.75;1.27;;;;;;;15.63;100.00;98533.56;5046988;28;20037;-78
2023/10/29 09:55:08;;;;;;;6.78;1.88;;;;;;;14.69;100.00;98443.03;5034065;28;20032;-79
2023/10/29 09:57:34;;;;;;;3.78;1.20;;;;;;;14.21;100.00;98538.28;5017489;28;20123;-77
2023/10/29 10:00:00;;;;;;;3.58;1.10;;;;;;;14.81;100.00;98614.84;5033660;28;20029;-78
2023/10/29 10:02:26;;;;;;;3.63;1.67;;;;;;;15.00;100.00;98479.19;5002936;28;20506;-77
2023/10/29 10:04:52;;;;;;;2.92;0.93;;;;;;;15.22;100.00;98483.81;5036233;28;20123;-77
2023/10/29 10:07:17;;;;;;;;;;;;;;;15.92;100.00;98472.34;5028361;28;20048;-77
2023/10/29 10:09:54;;;;;;;1.85;0.82;;;;;;;15.72;100.00;98357.25;5050086;28;19909;-79
2023/10/29 10:12:20;;;;;;;1.23;0.80;;;;;;;15.88;100.00;98376.25;5033350;28;20116;-78
2023/10/29 10:14:46;;;;;;;3.92;1.38;;;;;;;15.75;100.00;98321.75;5033436;28;20021;-77
2023/10/29 10:17:12;;;;;;;2.58;1.17;;;;;;;16.12;100.00;98345.22;5013132;28;20041;-77
2023/10/29 10:19:39;;;;;;;3.03;1.02;;;;;;;15.75;100.00;98167.63;5018220;28;20100;-77
2023/10/29 10:22:05;;;;;;;2.05;1.23;;;;;;;16.27;100.00;98371.44;5049176;28;20047;-78
2023/10/29 10:24:40;;;;;;;5.15;0.95;;;;;;;16.51;100.00;98266.06;5017145;28;20432;-80
2023/10/29 10:27:06;;;;;;;3.43;1.40;;;;;;;16.44;100.00;98185.50;5033136;28;20037;-77
2023/10/29 10:29:33;;;;;;;5.57;1.10;;;;;;;15.91;100.00;98131.69;5033304;28;20275;-77
2023/10/29 10:32:02;;;;;;;1.20;0.90;;;;;;;15.33;100.00;98220.25;5034413;28;20029;-79
2023/10/29 10:34:30;;;;;;;4.32;1.00;;;;;;;15.48;100.00;98355.91;5016595;28;20033;-77
2023/10/29 10:37:02;;;;;;;2.13;0.90;;;;;;;15.13;100.00;98285.38;5027106;28;20061;-78
2023/10/29 10:39:28;;;;;;;1.70;0.98;;;;;;;14.88;100.00;98320.81;5016203;28;20025;-78
2023/10/29 10:41:55;;;;;;;3.47;0.85;;;;;;;15.56;100.00;98337.44;5031636;28;20029;-76
2023/10/29 10:44:21;;;;;;;2.05;0.93;;;;;;;15.63;100.00;98243.91;5032713;28;20044;-78
2023/10/29 10:46:51;;;;;;;3.35;1.08;;;;;;;15.40;100.00;98265.75;5015209;28;20125;-79
2023/10/29 10:49:18;;;;;;;4.05;1.60;;;;;;;15.46;100.00;98331.16;5015871;28;20068;-79
2023/10/29 10:51:45;;;;;;;2.40;0.80;;;;;;;15.47;100.00;98242.16;5032847;28;20029;-78
2023/10/29 10:54:11;;;;;;;1.70;0.80;;;;;;;15.35;100.00;98207.34;5007442;28;20032;-78
2023/10/29 10:56:37;;;;;;;3.08;0.88;;;;;;;15.69;100.00;98308.53;5027534;28;20390;-77
2023/10/29 10:59:07;;;;;;;;;;;;;;;15.16;100.00;98169.28;5011488;28;20046;-77
2023/10/29 11:01:35;;;;;;;5.28;1.17;;;;;;;15.15;100.00;98196.44;5027248;28;19971;-77
2023/10/29 11:04:04;;;;;;;5.10;1.08;;;;;;;15.17;100.00;98179.00;5030919;28;20021;-77
2023/10/29 11:06:31;;;;;;;2.13;0.75;;;;;;;16.16;100.00;98330.19;5023550;28;20029;-77
2023/10/29 11:08:58;;;;;;;8.55;1.27;;;;;;;16.07;100.00;98124.50;5022102;28;20497;-77
2023/10/29 11:11:26;;;;;;;1.83;0.85;;;;;;;16.24;100.00;98151.22;5025425;28;20481;-76
2023/10/29 11:14:07;;;;;;;2.63;1.05;;;;;;;16.06;100.00;98034.09;5014802;28;20556;-77
2023/10/29 11:16:32;;;;;;;2.67;0.88;;;;;;;15.57;100.00;97992.16;5021299;28;20048;-78
2023/10/29 11:18:58;;;;;;;3.80;0.93;;;;;;;16.02;100.00;98146.81;5046349;28;20120;-76